Time;durP1;ratioP1;P1;durP2;ratioP2;P2;SDS_P1;SDS_P2;PMS_P1;PMS_P2;Temp;Humidity;BMP_temperature;BMP_pressure;BME280_temperature;BME280_humidity;BME280_pressure;Samples;Min_cycle;Max_cycle;Signal;HPM_P1;HPM_P2
2021/09/05 00:01:53;;;;;;;7.30;3.72;;;12.70;86.60;;;;;;4935266;28;20039;-67
2021/09/05 00:04:18;;;;;;;4.32;3.47;;;12.60;86.50;;;;;;4935165;28;20115;-67
2021/09/05 00:06:44;;;;;;;4.45;3.42;;;12.60;86.50;;;;;;4929977;29;20106;-67
2021/09/05 00:09:10;;;;;;;5.60;3.58;;;12.70;86.30;;;;;;4938086;29;20032;-66
2021/09/05 00:11:35;;;;;;;4.28;3.67;;;12.60;86.30;;;;;;4935900;29;20055;-66
2021/09/05 00:14:01;;;;;;;7.75;4.10;;;12.60;86.60;;;;;;4940507;28;20392;-67
2021/09/05 00:16:30;;;;;;;4.50;3.67;;;12.60;86.40;;;;;;4936076;29;20373;-67
2021/09/05 00:18:56;;;;;;;;;;;12.60;86.60;;;;;;4946130;29;20024;-66
2021/09/05 00:21:21;;;;;;;6.25;4.10;;;12.60;86.80;;;;;;4940295;29;19932;-67
2021/09/05 00:23:47;;;;;;;6.60;4.43;;;12.50;87.10;;;;;;4940778;28;20035;-67
2021/09/05 00:26:12;;;;;;;8.98;4.18;;;12.50;87.80;;;;;;4936540;29;20481;-67
2021/09/05 00:28:38;;;;;;;4.63;3.70;;;12.50;88.50;;;;;;4935905;28;20031;-66
2021/09/05 00:31:04;;;;;;;5.85;4.22;;;12.50;88.10;;;;;;4939103;28;20023;-66
2021/09/05 00:33:30;;;;;;;4.68;3.78;;;12.40;88.00;;;;;;4946567;29;20070;-67
2021/09/05 00:35:55;;;;;;;5.95;4.13;;;12.40;87.10;;;;;;4936081;28;20103;-66
2021/09/05 00:38:22;;;;;;;5.47;4.28;;;12.40;86.80;;;;;;4929758;28;20437;-67
2021/09/05 00:40:47;;;;;;;6.53;4.28;;;12.40;86.50;;;;;;4935685;28;20373;-66
2021/09/05 00:43:13;;;;;;;9.18;5.22;;;12.40;86.80;;;;;;4933138;29;20032;-67
2021/09/05 00:45:39;;;;;;;6.00;4.13;;;12.40;86.20;;;;;;4933858;29;20027;-67
2021/09/05 00:48:05;;;;;;;6.10;4.72;;;12.40;86.10;;;;;;4933790;29;20028;-67
2021/09/05 00:50:31;;;;;;;5.13;4.38;;;12.30;88.30;;;;;;4942790;28;20028;-66
2021/09/05 00:52:57;;;;;;;8.95;4.35;;;12.20;88.40;;;;;;4933277;28;20035;-67
2021/09/05 00:55:23;;;;;;;6.47;4.22;;;12.20;89.10;;;;;;4937069;29;20032;-66
2021/09/05 00:57:51;;;;;;;4.53;3.38;;;12.20;88.00;;;;;;4934264;29;20040;-67
2021/09/05 01:00:19;;;;;;;4.45;3.80;;;12.20;86.90;;;;;;4947465;28;20118;-67
2021/09/05 01:02:48;;;;;;;4.05;3.47;;;12.10;87.20;;;;;;4934027;29;20485;-67
2021/09/05 01:05:14;;;;;;;4.38;3.60;;;12.20;87.00;;;;;;4936946;29;20114;-68
2021/09/05 01:07:40;;;;;;;3.60;3.33;;;12.10;86.90;;;;;;4947954;29;20032;-69
2021/09/05 01:10:07;;;;;;;2.80;2.53;;;12.20;86.00;;;;;;4938670;29;20084;-68
2021/09/05 01:12:33;;;;;;;6.05;2.88;;;12.10;84.60;;;;;;4942527;29;20032;-68
2021/09/05 01:14:59;;;;;;;3.70;2.95;;;12.00;84.10;;;;;;4934122;28;20541;-68
2021/09/05 01:17:25;;;;;;;6.20;4.20;;;12.00;84.10;;;;;;4943287;29;20128;-71
2021/09/05 01:19:50;;;;;;;4.32;3.67;;;11.90;85.70;;;;;;4935179;29;20110;-68
2021/09/05 01:22:16;;;;;;;5.97;3.88;;;11.90;86.50;;;;;;4936145;28;20027;-68
2021/09/05 01:24:42;;;;;;;5.68;4.10;;;11.90;86.50;;;;;;4932213;29;20024;-67
2021/09/05 01:27:08;;;;;;;4.38;3.67;;;11.90;87.00;;;;;;4932617;29;20226;-68
2021/09/05 01:29:33;;;;;;;5.78;4.20;;;11.80;86.80;;;;;;4933493;28;20087;-68
2021/09/05 01:31:59;;;;;;;5.13;3.75;;;11.80;86.50;;;;;;4937962;28;20297;-68
2021/09/05 01:34:25;;;;;;;3.70;3.10;;;11.80;87.00;;;;;;4946044;29;20138;-68
2021/09/05 01:36:53;;;;;;;4.25;3.85;;;11.70;87.10;;;;;;4944922;29;20027;-67
2021/09/05 01:39:20;;;;;;;4.33;3.70;;;11.70;87.00;;;;;;4938183;28;20031;-68
2021/09/05 01:41:46;;;;;;;5.80;3.90;;;11.60;86.50;;;;;;4937291;29;20288;-68
2021/09/05 01:44:21;;;;;;;3.65;3.17;;;11.70;86.60;;;;;;4938342;28;20167;-68
2021/09/05 01:46:47;;;;;;;6.43;3.97;;;11.60;86.00;;;;;;4932930;29;20107;-68
2021/09/05 01:49:13;;;;;;;5.18;4.18;;;11.60;86.10;;;;;;4935431;29;20170;-68
2021/09/05 01:51:39;;;;;;;9.55;5.10;;;11.50;87.90;;;;;;4942399;28;20036;-68
2021/09/05 01:54:04;;;;;;;6.65;4.32;;;11.40;89.30;;;;;;4937122;29;20023;-68
2021/09/05 01:56:31;;;;;;;4.93;3.67;;;11.40;89.50;;;;;;4933946;29;20039;-68
2021/09/05 01:58:58;;;;;;;4.70;4.00;;;11.40;88.90;;;;;;4933343;28;20783;-68
2021/09/05 02:01:24;;;;;;;4.50;3.60;;;11.40;88.00;;;;;;4931472;28;20058;-68
2021/09/05 02:03:50;;;;;;;4.63;3.92;;;11.40;87.00;;;;;;4934545;29;20476;-68
2021/09/05 02:06:16;;;;;;;6.07;3.83;;;11.30;87.20;;;;;;4939834;29;20147;-68
2021/09/05 02:08:42;;;;;;;6.80;4.03;;;11.30;88.00;;;;;;4933956;28;20574;-68
2021/09/05 02:11:07;;;;;;;4.30;3.67;;;11.30;88.60;;;;;;4933575;29;20102;-68
2021/09/05 02:13:33;;;;;;;5.28;4.20;;;11.30;88.60;;;;;;4932313;29;20036;-68
2021/09/05 02:15:59;;;;;;;3.65;3.35;;;11.20;89.00;;;;;;4935586;29;20540;-67
2021/09/05 02:18:24;;;;;;;5.72;3.92;;;11.10;89.00;;;;;;4934900;28;20052;-68
2021/09/05 02:20:50;;;;;;;4.43;3.83;;;11.20;88.70;;;;;;4945342;29;20035;-68
2021/09/05 02:23:16;;;;;;;5.65;3.88;;;11.20;88.70;;;;;;4937462;29;20036;-68
2021/09/05 02:25:41;;;;;;;4.72;4.07;;;11.20;89.10;;;;;;4936620;29;20110;-68
2021/09/05 02:28:07;;;;;;;4.60;3.80;;;11.20;88.90;;;;;;4934368;29;20098;-67
2021/09/05 02:30:34;;;;;;;4.88;3.55;;;11.10;88.70;;;;;;4934520;28;20036;-68
2021/09/05 02:33:01;;;;;;;5.63;4.13;;;11.10;88.90;;;;;;4942603;29;20103;-67
2021/09/05 02:35:27;;;;;;;5.63;3.80;;;11.10;89.00;;;;;;4932440;28;20048;-68
2021/09/05 02:37:52;;;;;;;4.82;3.35;;;11.20;88.70;;;;;;4942405;28;20042;-68
2021/09/05 02:40:18;;;;;;;10.02;3.55;;;11.10;88.60;;;;;;4930735;29;20028;-68
2021/09/05 02:42:44;;;;;;;4.32;3.55;;;11.10;88.00;;;;;;4931469;28;20020;-68
2021/09/05 02:45:10;;;;;;;3.58;3.10;;;11.10;87.60;;;;;;4931312;29;20020;-68
2021/09/05 02:47:36;;;;;;;3.72;3.13;;;11.00;87.50;;;;;;4934304;29;20086;-68
2021/09/05 02:50:02;;;;;;;5.22;3.42;;;11.00;88.00;;;;;;4936763;28;20048;-68
2021/09/05 02:52:28;;;;;;;6.30;3.53;;;11.00;88.30;;;;;;4941215;29;20035;-68
2021/09/05 02:54:54;;;;;;;4.47;3.35;;;11.00;88.20;;;;;;4935648;29;20087;-68
2021/09/05 02:57:19;;;;;;;3.70;3.28;;;11.00;88.00;;;;;;4942533;29;20484;-68
2021/09/05 02:59:45;;;;;;;4.43;3.47;;;10.90;87.70;;;;;;4933135;29;20059;-68
2021/09/05 03:02:10;;;;;;;12.82;3.60;;;11.00;87.40;;;;;;4941372;28;20032;-68
2021/09/05 03:04:36;;;;;;;4.13;3.50;;;11.00;87.40;;;;;;4938987;28;20027;-68
2021/09/05 03:07:02;;;;;;;4.72;3.20;;;10.90;87.60;;;;;;4933391;28;20051;-68
2021/09/05 03:09:27;;;;;;;7.03;3.70;;;10.80;87.40;;;;;;4935010;29;22235;-67
2021/09/05 03:11:53;;;;;;;3.92;3.10;;;10.90;87.60;;;;;;4933875;28;20044;-68
2021/09/05 03:14:19;;;;;;;5.43;3.70;;;10.80;87.80;;;;;;4938731;28;20027;-68
2021/09/05 03:16:44;;;;;;;4.30;3.33;;;10.80;87.50;;;;;;4936019;28;20537;-71
2021/09/05 03:19:11;;;;;;;4.00;3.08;;;10.80;87.00;;;;;;4939751;29;20322;-68
2021/09/05 03:21:38;;;;;;;4.38;2.75;;;10.80;86.70;;;;;;4939865;29;20019;-67
2021/09/05 03:24:04;;;;;;;4.90;2.70;;;10.80;86.90;;;;;;4947169;28;20024;-68
2021/09/05 03:26:30;;;;;;;3.70;2.72;;;10.80;87.20;;;;;;4936296;29;20027;-68
2021/09/05 03:28:55;;;;;;;5.10;3.30;;;10.70;87.40;;;;;;4941833;29;20050;-68
2021/09/05 03:31:21;;;;;;;5.07;2.90;;;10.60;88.30;;;;;;4944118;28;20032;-68
2021/09/05 03:33:47;;;;;;;6.40;3.15;;;10.70;87.80;;;;;;4941038;28;20034;-68
2021/09/05 03:36:12;;;;;;;3.50;2.80;;;10.70;87.70;;;;;;4938093;29;20027;-68
2021/09/05 03:38:38;;;;;;;4.00;3.20;;;10.70;87.60;;;;;;4935812;29;20043;-67
2021/09/05 03:41:03;;;;;;;4.30;3.03;;;10.60;87.80;;;;;;4941870;29;20023;-68
2021/09/05 03:43:29;;;;;;;4.18;3.22;;;10.60;87.60;;;;;;4937350;29;20034;-67
2021/09/05 03:45:55;;;;;;;4.45;3.50;;;10.60;87.60;;;;;;4935621;29;20107;-67
2021/09/05 03:48:20;;;;;;;4.05;3.42;;;10.60;88.00;;;;;;4936508;28;20059;-68
2021/09/05 03:50:46;;;;;;;5.38;3.70;;;10.50;89.00;;;;;;4940204;28;20452;-67
2021/09/05 03:53:11;;;;;;;5.47;4.05;;;10.50;89.10;;;;;;4937110;29;20035;-67
2021/09/05 03:55:37;;;;;;;4.68;3.47;;;10.50;89.10;;;;;;4941042;28;20496;-67
2021/09/05 03:58:04;;;;;;;2.95;2.75;;;10.40;88.70;;;;;;4944535;28;20075;-68
2021/09/05 04:00:29;;;;;;;2.90;2.58;;;10.30;88.30;;;;;;4935498;28;20125;-67
2021/09/05 04:02:55;;;;;;;2.85;2.58;;;10.30;88.20;;;;;;4933816;29;20032;-68
2021/09/05 04:05:20;;;;;;;3.00;2.80;;;10.20;88.10;;;;;;4937050;29;20222;-67
2021/09/05 04:10:30;;;;;;;3.92;3.10;;;10.30;88.30;;;;;;4941217;28;20102;-68
2021/09/05 04:12:57;;;;;;;4.07;3.60;;;10.20;89.00;;;;;;4935454;28;20035;-67
2021/09/05 04:15:23;;;;;;;3.35;3.03;;;10.20;89.00;;;;;;4935795;29;20031;-67
2021/09/05 04:17:48;;;;;;;3.58;3.28;;;10.20;88.70;;;;;;4945173;29;20059;-67
2021/09/05 04:20:14;;;;;;;4.05;3.20;;;10.20;89.00;;;;;;4942579;29;20035;-67
2021/09/05 04:22:40;;;;;;;6.65;2.95;;;10.20;89.00;;;;;;4948120;29;20067;-67
2021/09/05 04:25:06;;;;;;;3.22;2.92;;;10.20;89.80;;;;;;4933860;28;20043;-68
2021/09/05 04:27:32;;;;;;;4.55;3.13;;;10.20;88.30;;;;;;4933648;29;20032;-68
2021/09/05 04:29:58;;;;;;;4.88;3.30;;;10.20;88.10;;;;;;4936009;29;20058;-68
2021/09/05 04:32:24;;;;;;;3.55;3.25;;;10.20;88.30;;;;;;4938506;28;20397;-67
2021/09/05 04:34:50;;;;;;;5.85;3.45;;;10.20;88.60;;;;;;4936356;29;20366;-68
2021/09/05 04:37:17;;;;;;;3.88;3.05;;;10.20;88.80;;;;;;4945450;29;20035;-68
2021/09/05 04:39:43;;;;;;;4.32;3.30;;;10.20;88.50;;;;;;4935565;29;20043;-67
2021/09/05 04:42:10;;;;;;;3.85;3.03;;;10.20;88.30;;;;;;4935902;29;20036;-68
2021/09/05 04:44:36;;;;;;;5.65;3.60;;;10.30;88.40;;;;;;4946684;28;20195;-68
2021/09/05 04:47:02;;;;;;;4.93;3.30;;;10.20;88.60;;;;;;4936423;29;20052;-68
2021/09/05 04:49:28;;;;;;;6.63;3.53;;;10.10;88.50;;;;;;4936931;28;20487;-67
2021/09/05 04:51:53;;;;;;;4.43;3.00;;;10.10;88.90;;;;;;4940125;29;20047;-67
2021/09/05 04:54:19;;;;;;;5.43;3.03;;;10.10;88.40;;;;;;4933451;28;20070;-67
2021/09/05 04:56:45;;;;;;;4.00;2.90;;;10.00;88.30;;;;;;4939424;29;20075;-68
2021/09/05 04:59:11;;;;;;;5.05;3.00;;;9.90;88.40;;;;;;4941529;28;20497;-67
2021/09/05 05:01:36;;;;;;;3.08;2.83;;;9.90;88.60;;;;;;4935106;28;20032;-68
2021/09/05 05:04:02;;;;;;;3.22;2.50;;;9.90;88.40;;;;;;4936022;29;20028;-68
2021/09/05 05:06:28;;;;;;;3.30;3.00;;;9.80;88.50;;;;;;4936458;28;20366;-68
2021/09/05 05:08:53;;;;;;;4.45;3.15;;;9.90;89.10;;;;;;4940616;28;20110;-68
2021/09/05 05:11:19;;;;;;;4.38;3.55;;;9.80;89.70;;;;;;4942523;28;20036;-67
2021/09/05 05:13:45;;;;;;;2.80;2.60;;;9.80;90.00;;;;;;4937750;28;20035;-68
2021/09/05 05:16:10;;;;;;;4.63;2.67;;;9.80;90.00;;;;;;4935088;29;20036;-68
2021/09/05 05:18:36;;;;;;;3.60;2.70;;;9.90;90.10;;;;;;4935986;29;20044;-67
2021/09/05 05:21:02;;;;;;;4.05;2.60;;;9.90;89.50;;;;;;4935696;28;20102;-68
2021/09/05 05:23:29;;;;;;;3.65;2.70;;;9.90;90.20;;;;;;4942551;28;20019;-67
2021/09/05 05:25:55;;;;;;;3.17;2.88;;;10.00;90.20;;;;;;4933298;29;20028;-68
2021/09/05 05:28:21;;;;;;;3.25;2.80;;;10.00;90.20;;;;;;4934463;29;20035;-69
2021/09/05 05:30:46;;;;;;;5.32;3.38;;;10.00;90.60;;;;;;4936853;29;20142;-68
2021/09/05 05:33:12;;;;;;;5.95;3.28;;;10.10;91.00;;;;;;4941431;29;20023;-67
2021/09/05 05:35:38;;;;;;;5.63;4.13;;;10.10;91.00;;;;;;4937680;28;20035;-68
2021/09/05 05:38:03;;;;;;;4.20;3.47;;;10.10;91.30;;;;;;4946402;28;20083;-68
2021/09/05 05:40:33;;;;;;;3.72;3.25;;;10.10;91.90;;;;;;4929850;29;20040;-68
2021/09/05 05:43:02;;;;;;;5.75;3.50;;;10.00;92.20;;;;;;4932585;29;20028;-68
2021/09/05 05:45:28;;;;;;;4.55;3.50;;;10.10;91.90;;;;;;4928869;29;20028;-68
2021/09/05 05:47:54;;;;;;;4.80;3.60;;;10.20;92.00;;;;;;4935845;29;20489;-68
2021/09/05 05:50:20;;;;;;;3.85;3.22;;;10.30;92.30;;;;;;4935143;29;20038;-68
2021/09/05 05:52:46;;;;;;;5.10;3.72;;;10.30;91.70;;;;;;4942604;29;20090;-68
2021/09/05 05:55:12;;;;;;;6.35;4.28;;;10.40;91.70;;;;;;4937843;28;20095;-68
2021/09/05 05:57:38;;;;;;;4.97;3.75;;;10.50;91.70;;;;;;4941759;29;20377;-68
2021/09/05 06:00:07;;;;;;;4.68;3.97;;;10.60;92.10;;;;;;4935443;29;20094;-69
2021/09/05 06:02:33;;;;;;;5.10;3.90;;;10.60;92.30;;;;;;4927416;29;20039;-68
2021/09/05 06:04:59;;;;;;;4.63;3.78;;;10.60;92.20;;;;;;4934847;29;20031;-67
2021/09/05 06:07:25;;;;;;;5.45;3.78;;;10.70;92.00;;;;;;4934336;29;20027;-68
2021/09/05 06:09:52;;;;;;;4.95;3.80;;;10.80;92.10;;;;;;4935431;29;20412;-68
2021/09/05 06:12:17;;;;;;;5.13;3.92;;;10.90;92.30;;;;;;4934878;29;20396;-68
2021/09/05 06:14:43;;;;;;;5.10;3.97;;;11.00;92.20;;;;;;4942006;28;20031;-68
2021/09/05 06:17:09;;;;;;;6.88;4.60;;;11.00;92.10;;;;;;4940213;29;20047;-68
2021/09/05 06:19:35;;;;;;;5.13;4.03;;;11.10;92.20;;;;;;4948557;28;20561;-68
2021/09/05 06:22:00;;;;;;;6.10;4.55;;;11.20;92.50;;;;;;4940468;28;20042;-68
2021/09/05 06:24:26;;;;;;;6.65;4.18;;;11.30;92.90;;;;;;4936480;29;20036;-68
2021/09/05 06:26:51;;;;;;;8.85;5.18;;;11.30;92.60;;;;;;4931979;28;20059;-68
2021/09/05 06:29:17;;;;;;;8.05;5.22;;;11.40;92.80;;;;;;4935138;29;20032;-68
2021/09/05 06:31:43;;;;;;;6.07;4.80;;;11.50;92.90;;;;;;4934741;28;20043;-68
2021/09/05 06:34:09;;;;;;;8.55;5.63;;;11.60;92.80;;;;;;4935313;29;20031;-67
2021/09/05 06:36:34;;;;;;;8.85;5.28;;;11.70;92.70;;;;;;4943436;29;20050;-68
2021/09/05 06:39:00;;;;;;;6.57;4.80;;;11.70;92.90;;;;;;4933978;29;20032;-67
2021/09/05 06:41:26;;;;;;;8.77;5.93;;;11.80;93.00;;;;;;4931390;29;20028;-67
2021/09/05 06:43:51;;;;;;;7.35;5.47;;;11.90;92.50;;;;;;4933757;29;20808;-68
2021/09/05 06:46:17;;;;;;;10.45;5.80;;;12.00;93.20;;;;;;4932312;29;20035;-68
2021/09/05 06:48:44;;;;;;;9.20;5.55;;;12.10;93.10;;;;;;4927405;29;20043;-68
2021/09/05 06:51:10;;;;;;;7.38;5.72;;;12.20;93.20;;;;;;4934280;29;20070;-69
2021/09/05 06:53:37;;;;;;;10.88;6.13;;;12.30;93.50;;;;;;4929942;29;20196;-68
2021/09/05 06:56:03;;;;;;;9.23;6.40;;;12.30;93.30;;;;;;4936704;29;20504;-68
2021/09/05 06:58:30;;;;;;;10.70;6.30;;;12.40;93.60;;;;;;4932309;28;20114;-67
2021/09/05 07:00:59;;;;;;;9.82;6.57;;;12.50;93.80;;;;;;4931573;29;20032;-68
2021/09/05 07:03:25;;;;;;;9.60;6.72;;;12.60;93.70;;;;;;4924295;29;20031;-68
2021/09/05 07:05:50;;;;;;;10.07;6.88;;;12.70;93.50;;;;;;4931673;29;20031;-68
2021/09/05 07:08:16;;;;;;;11.82;6.50;;;12.80;93.40;;;;;;4932124;29;20551;-68
2021/09/05 07:10:42;;;;;;;9.38;6.28;;;12.90;92.90;;;;;;4932493;28;20182;-68
2021/09/05 07:13:07;;;;;;;9.90;6.95;;;13.00;93.10;;;;;;4932186;28;20481;-68
2021/09/05 07:15:36;;;;;;;10.45;7.00;;;13.10;93.30;;;;;;4933911;29;20032;-68
2021/09/05 07:18:02;;;;;;;11.52;7.05;;;13.20;93.10;;;;;;4932640;29;20619;-68
2021/09/05 07:20:28;;;;;;;11.20;7.47;;;13.30;93.50;;;;;;4930588;29;20027;-68
2021/09/05 07:22:55;;;;;;;11.15;7.57;;;13.50;93.30;;;;;;4933344;29;20503;-67
2021/09/05 07:25:21;;;;;;;11.30;6.88;;;13.50;93.60;;;;;;4930387;29;20047;-68
2021/09/05 07:27:48;;;;;;;12.65;7.93;;;13.60;92.70;;;;;;4934837;29;20103;-69
2021/09/05 07:30:14;;;;;;;11.13;7.35;;;13.80;93.90;;;;;;4931871;28;20091;-68
2021/09/05 07:32:41;;;;;;;9.57;6.97;;;13.90;93.40;;;;;;4931079;28;20035;-68
2021/09/05 07:35:07;;;;;;;11.50;7.70;;;14.10;93.30;;;;;;4931390;29;20039;-67
2021/09/05 07:37:33;;;;;;;10.88;8.00;;;14.30;93.50;;;;;;4930458;29;20404;-68
2021/09/05 07:39:59;;;;;;;16.02;9.20;;;14.40;92.80;;;;;;4926960;28;20027;-68
2021/09/05 07:42:25;;;;;;;13.00;8.88;;;14.60;93.20;;;;;;4926136;29;20483;-68
2021/09/05 07:44:50;;;;;;;15.93;9.68;;;14.80;92.90;;;;;;4929784;29;20030;-68
2021/09/05 07:47:16;;;;;;;14.55;9.60;;;14.90;92.30;;;;;;4930163;29;20068;-69
2021/09/05 07:49:41;;;;;;;15.05;9.00;;;15.00;91.90;;;;;;4932104;29;20105;-68
2021/09/05 07:52:07;;;;;;;15.27;9.75;;;15.10;91.90;;;;;;4930493;29;20032;-68
2021/09/05 07:54:33;;;;;;;15.13;9.10;;;15.30;91.90;;;;;;4930903;29;20031;-69
2021/09/05 07:56:58;;;;;;;13.50;8.60;;;15.40;91.00;;;;;;4931807;29;20036;-68
2021/09/05 07:59:24;;;;;;;14.32;9.15;;;15.50;91.60;;;;;;4931201;29;20028;-69
2021/09/05 08:01:49;;;;;;;15.93;9.43;;;15.70;92.80;;;;;;4929305;28;20036;-69
2021/09/05 08:04:15;;;;;;;13.98;9.05;;;15.90;92.00;;;;;;4934014;29;20028;-68
2021/09/05 08:06:41;;;;;;;14.77;8.75;;;16.00;91.60;;;;;;4933948;28;20115;-68
2021/09/05 08:09:06;;;;;;;12.57;8.93;;;16.10;91.20;;;;;;4933921;29;20114;-68
2021/09/05 08:11:32;;;;;;;15.13;8.77;;;16.30;92.10;;;;;;4934491;29;20039;-68
2021/09/05 08:13:58;;;;;;;15.82;8.80;;;16.40;91.30;;;;;;4934585;29;20070;-69
2021/09/05 08:16:23;;;;;;;10.77;8.07;;;16.60;90.90;;;;;;4929340;29;20055;-68
2021/09/05 08:18:49;;;;;;;14.60;9.23;;;16.70;90.90;;;;;;4934230;29;20055;-69
2021/09/05 08:21:14;;;;;;;13.55;8.98;;;16.90;91.00;;;;;;4939393;29;20613;-68
2021/09/05 08:23:42;;;;;;;15.32;9.52;;;17.00;90.40;;;;;;4935132;29;20032;-68
2021/09/05 08:26:12;;;;;;;11.27;8.48;;;17.10;90.00;;;;;;4941785;29;20078;-68
2021/09/05 08:28:38;;;;;;;11.80;8.38;;;17.20;88.70;;;;;;4933454;28;20031;-69
2021/09/05 08:31:04;;;;;;;14.45;8.13;;;17.30;88.00;;;;;;4935087;28;20035;-69
2021/09/05 08:33:30;;;;;;;13.13;9.23;;;17.40;87.20;;;;;;4935355;29;20038;-69
2021/09/05 08:35:55;;;;;;;11.63;8.27;;;17.60;88.70;;;;;;4933895;29;20078;-68
2021/09/05 08:38:21;;;;;;;13.65;8.68;;;17.80;89.30;;;;;;4931610;29;20493;-68
2021/09/05 08:40:49;;;;;;;13.02;7.85;;;18.00;87.00;;;;;;4928310;29;20024;-69
2021/09/05 08:43:16;;;;;;;13.38;7.80;;;18.10;85.50;;;;;;4935057;29;20024;-69
2021/09/05 08:45:45;;;;;;;11.48;8.00;;;18.20;85.10;;;;;;4936252;29;20028;-68
2021/09/05 08:48:13;;;;;;;13.05;7.47;;;18.30;84.40;;;;;;4933150;29;20110;-68
2021/09/05 08:50:40;;;;;;;11.20;7.78;;;18.40;83.90;;;;;;4933161;29;20090;-69
2021/09/05 08:53:06;;;;;;;12.90;8.05;;;18.50;83.00;;;;;;4934089;28;20042;-69
2021/09/05 08:55:33;;;;;;;11.95;8.40;;;18.60;82.80;;;;;;4933041;29;20114;-68
2021/09/05 08:57:58;;;;;;;10.18;7.75;;;18.70;81.50;;;;;;4934981;28;20031;-69
2021/09/05 09:00:24;;;;;;;12.25;8.05;;;18.80;81.50;;;;;;4933339;28;20123;-68
2021/09/05 09:02:55;;;;;;;11.88;7.22;;;18.90;79.50;;;;;;4931074;29;20031;-68
2021/09/05 09:05:32;;;;;;;10.75;7.30;;;18.90;78.80;;;;;;4933219;29;20039;-69
2021/09/05 09:08:02;;;;;;;11.77;7.55;;;18.90;77.10;;;;;;4927442;29;20038;-69
2021/09/05 09:10:28;;;;;;;9.52;6.70;;;19.00;77.50;;;;;;4933985;29;20434;-69
2021/09/05 09:12:54;;;;;;;10.50;6.55;;;19.20;79.30;;;;;;4929891;29;20108;-69
2021/09/05 09:15:29;;;;;;;10.38;6.90;;;19.30;78.30;;;;;;4927887;29;20039;-69
2021/09/05 09:18:03;;;;;;;10.00;7.10;;;19.30;75.80;;;;;;4930377;29;20031;-69
2021/09/05 09:20:34;;;;;;;11.02;6.38;;;19.50;77.00;;;;;;4926560;29;20027;-69
2021/09/05 09:23:21;;;;;;;10.23;6.60;;;19.60;77.60;;;;;;4929055;29;20103;-68
2021/09/05 09:26:11;;;;;;;8.80;6.55;;;19.60;73.80;;;;;;4925227;28;20035;-69
2021/09/05 09:28:45;;;;;;;8.88;6.20;;;19.70;75.30;;;;;;4928811;29;20480;-69
2021/09/05 09:31:20;;;;;;;9.88;6.10;;;19.80;76.20;;;;;;4930064;28;20512;-68
2021/09/05 09:34:06;;;;;;;8.98;6.25;;;19.90;74.70;;;;;;4925972;29;20111;-69
2021/09/05 09:36:32;;;;;;;9.45;6.15;;;20.00;76.60;;;;;;4926899;29;20367;-69
2021/09/05 09:39:04;;;;;;;8.43;5.60;;;20.10;75.20;;;;;;4935799;28;20043;-69
2021/09/05 09:41:40;;;;;;;7.55;5.45;;;20.00;73.50;;;;;;4930425;28;20481;-69
2021/09/05 09:44:09;;;;;;;8.38;5.32;;;20.10;73.70;;;;;;4931837;29;20028;-71
2021/09/05 09:46:37;;;;;;;8.70;5.95;;;20.20;70.20;;;;;;4935905;29;20032;-71
2021/09/05 09:49:03;;;;;;;;;;;20.40;71.00;;;;;;4931324;29;20027;-71
2021/09/05 09:51:30;;;;;;;6.78;4.93;;;20.50;69.40;;;;;;4934163;29;19930;-71
2021/09/05 09:53:57;;;;;;;8.90;5.68;;;20.40;70.30;;;;;;4932905;29;20028;-71
2021/09/05 09:56:23;;;;;;;6.47;5.13;;;20.60;69.10;;;;;;4926908;29;20084;-68
2021/09/05 09:58:51;;;;;;;7.10;4.82;;;20.70;70.00;;;;;;4929973;29;20502;-69
2021/09/05 10:01:21;;;;;;;6.38;4.88;;;20.70;66.80;;;;;;4927397;29;20524;-69
2021/09/05 10:03:49;;;;;;;9.52;4.93;;;20.70;67.00;;;;;;4929536;29;20106;-69
2021/09/05 10:06:15;;;;;;;;;;;20.80;69.60;;;;;;4933021;29;20015;-68
2021/09/05 10:08:43;;;;;;;5.78;4.10;;;20.90;65.30;;;;;;4933367;29;19926;-68
2021/09/05 10:11:10;;;;;;;7.45;4.53;;;21.00;65.50;;;;;;4931256;29;20051;-68
2021/09/05 10:13:40;;;;;;;6.20;4.60;;;21.10;63.60;;;;;;4930231;29;20325;-69
2021/09/05 10:16:07;;;;;;;7.32;4.70;;;21.20;68.10;;;;;;4928630;28;20350;-68
2021/09/05 10:18:35;;;;;;;6.28;4.60;;;21.20;66.20;;;;;;4924296;29;20530;-68
2021/09/05 10:21:00;;;;;;;;;;;21.30;66.30;;;;;;4927954;29;20055;-69
2021/09/05 10:23:31;;;;;;;7.82;3.95;;;21.30;65.80;;;;;;4935033;29;19953;-68
2021/09/05 10:26:11;;;;;;;6.13;3.83;;;21.40;63.70;;;;;;4931100;28;20032;-69
2021/09/05 10:28:38;;;;;;;6.93;4.80;;;21.40;60.50;;;;;;4923736;29;20024;-68
2021/09/05 10:31:06;;;;;;;7.30;4.23;;;21.40;60.20;;;;;;4930627;28;20383;-68
2021/09/05 10:33:34;;;;;;;7.95;4.18;;;21.40;61.20;;;;;;4923411;29;20528;-68
2021/09/05 10:36:08;;;;;;;6.03;4.18;;;21.50;59.90;;;;;;4933393;29;20028;-64
2021/09/05 10:38:35;;;;;;;5.18;3.78;;;21.50;56.80;;;;;;4934345;29;20031;-64
2021/09/05 10:41:08;;;;;;;6.75;4.07;;;21.60;58.90;;;;;;4928094;29;20028;-66
2021/09/05 10:43:59;;;;;;;4.05;3.60;;;21.50;56.00;;;;;;4944539;28;20040;-66
2021/09/05 10:46:41;;;;;;;4.82;3.55;;;21.50;56.00;;;;;;4927491;29;20118;-67
2021/09/05 10:49:07;;;;;;;6.80;4.07;;;21.60;55.70;;;;;;4924971;29;20027;-66
2021/09/05 10:51:36;;;;;;;4.90;3.50;;;21.70;58.10;;;;;;4929241;29;20038;-66
2021/09/05 10:54:06;;;;;;;5.05;3.35;;;21.70;60.70;;;;;;4938902;29;20030;-68
2021/09/05 10:56:41;;;;;;;5.72;4.05;;;21.70;51.90;;;;;;4926944;29;20039;-67
2021/09/05 10:59:31;;;;;;;7.07;3.83;;;21.60;57.40;;;;;;4929589;29;20405;-67
2021/09/05 11:01:59;;;;;;;5.60;3.50;;;21.60;58.00;;;;;;4922427;29;20494;-69
2021/09/05 11:04:45;;;;;;;6.22;3.78;;;21.80;62.50;;;;;;4925190;29;20078;-66
2021/09/05 11:07:40;;;;;;;4.70;3.78;;;21.90;52.80;;;;;;4922642;29;20457;-66
2021/09/05 11:10:06;;;;;;;5.55;3.50;;;21.80;55.90;;;;;;4923135;29;20174;-67
2021/09/05 11:12:35;;;;;;;4.85;3.40;;;21.90;54.50;;;;;;4930166;28;20039;-67
2021/09/05 11:15:02;;;;;;;7.20;3.85;;;21.90;56.70;;;;;;4927423;29;20032;-67
2021/09/05 11:17:32;;;;;;;4.55;3.20;;;22.10;56.00;;;;;;4925461;29;20062;-66
2021/09/05 11:20:11;;;;;;;5.53;3.58;;;22.10;51.90;;;;;;4930467;28;20058;-67
2021/09/05 11:22:42;;;;;;;7.25;3.30;;;22.00;52.40;;;;;;4930848;29;20055;-67
2021/09/05 11:25:21;;;;;;;6.22;3.35;;;22.00;52.60;;;;;;4932531;29;20050;-66
2021/09/05 11:27:54;;;;;;;4.93;2.95;;;22.00;54.40;;;;;;4927343;29;20028;-69
2021/09/05 11:30:21;;;;;;;5.35;2.95;;;22.10;51.20;;;;;;4932354;28;20019;-69
2021/09/05 11:32:48;;;;;;;4.45;3.30;;;22.10;50.80;;;;;;4930730;29;20027;-68
2021/09/05 11:35:14;;;;;;;4.15;3.15;;;22.00;49.60;;;;;;4932094;29;20849;-69
2021/09/05 11:37:42;;;;;;;4.20;2.90;;;22.00;52.20;;;;;;4934166;29;20032;-69
2021/09/05 11:40:19;;;;;;;4.93;3.60;;;22.00;51.40;;;;;;4933091;29;20492;-69
2021/09/05 11:42:50;;;;;;;3.88;3.15;;;22.10;49.90;;;;;;4934924;29;20022;-67
2021/09/05 11:45:19;;;;;;;4.10;3.22;;;22.00;50.50;;;;;;4936307;29;20051;-69
2021/09/05 11:47:45;;;;;;;4.32;2.92;;;22.00;48.40;;;;;;4935120;29;20095;-68
2021/09/05 11:50:13;;;;;;;5.50;3.13;;;22.00;49.60;;;;;;4926889;28;20032;-69
2021/09/05 11:52:40;;;;;;;4.60;2.95;;;22.00;50.40;;;;;;4933582;29;20059;-69
2021/09/05 11:55:14;;;;;;;3.63;2.97;;;22.10;48.80;;;;;;4935180;29;20032;-69
2021/09/05 11:57:57;;;;;;;5.60;3.33;;;22.10;49.70;;;;;;4931202;29;20023;-69
2021/09/05 12:00:24;;;;;;;4.03;3.47;;;22.20;49.30;;;;;;4933811;28;20381;-69
2021/09/05 12:02:50;;;;;;;4.40;2.90;;;22.20;47.80;;;;;;4934926;29;20047;-70
2021/09/05 12:05:17;;;;;;;4.63;2.95;;;22.20;48.30;;;;;;4935524;29;20090;-69
2021/09/05 12:07:43;;;;;;;5.05;3.10;;;22.30;50.00;;;;;;4929245;28;20067;-69
2021/09/05 12:10:18;;;;;;;6.35;3.33;;;22.30;47.60;;;;;;4934533;29;20055;-69
2021/09/05 12:12:55;;;;;;;5.78;3.35;;;22.20;48.40;;;;;;4933936;29;20529;-69
2021/09/05 12:15:21;;;;;;;5.57;3.38;;;22.20;51.90;;;;;;4932008;29;20091;-68
2021/09/05 12:17:49;;;;;;;4.28;3.10;;;22.30;49.50;;;;;;4933935;29;20060;-68
2021/09/05 12:20:20;;;;;;;5.22;3.05;;;22.30;50.20;;;;;;4933971;29;20042;-69
2021/09/05 12:22:54;;;;;;;4.30;3.28;;;22.30;51.40;;;;;;4934090;29;20036;-69
2021/09/05 12:25:33;;;;;;;3.33;2.83;;;22.50;49.80;;;;;;4931154;29;20024;-69
2021/09/05 12:27:58;;;;;;;3.72;2.85;;;22.50;47.60;;;;;;4932814;28;20426;-69
2021/09/05 12:30:26;;;;;;;3.72;3.08;;;22.50;49.50;;;;;;4933441;28;20028;-69
2021/09/05 12:33:11;;;;;;;4.75;2.90;;;22.50;50.00;;;;;;4932727;28;20032;-69
2021/09/05 12:35:44;;;;;;;6.05;3.00;;;22.50;48.60;;;;;;4935268;29;20043;-69
2021/09/05 12:38:15;;;;;;;2.70;2.47;;;22.40;49.30;;;;;;4929697;29;20031;-69
2021/09/05 12:40:45;;;;;;;3.65;2.83;;;22.50;45.60;;;;;;4933879;29;20038;-69
2021/09/05 12:43:14;;;;;;;5.47;2.97;;;22.50;44.40;;;;;;4934313;29;20520;-69
2021/09/05 12:45:54;;;;;;;6.40;3.40;;;22.40;44.60;;;;;;4929571;28;20039;-69
2021/09/05 12:48:22;;;;;;;4.05;2.80;;;22.40;45.10;;;;;;4933890;29;20040;-68
2021/09/05 12:51:01;;;;;;;;;;;22.40;47.80;;;;;;4930961;29;20116;-69